ハリファックス の空港の天気 - METARとTAF

ハリファックス国際空港 ( CYHZ / YHZ ) - カナダ ノバスコシア州ハリファックス
飛行場実況気象(Metar)
観測時間09/18 14:00 ADT (09/18 17:00 UTC)
風向・風速北 8m/s 瞬間風速11m/s
視程10km以上
天気現象
全天の8割程度の雲 雲底高度 1070m
気温14℃
湿度55%
気圧1023.2hPa
METARCYHZ 181700Z 01016G22KT 15SM BKN035 14/05 A3020 RMK SC6 SLP232
過去の天気等 Google飛行場航空写真 Wunderground天気予報

過去48時間のMETAR

飛行場予報(TAF)
発表時間: 9/18 11:38 ADT (9/18 14:38 UTC)
予報対象時間: 18日12時 ADT ~ 19日9時 ADT
風向・風速北北東 8m/s 瞬間風速 13m/s
視程10km以上
全天の8割程度の雲 雲底高度 910m
18日17時 ADT から
風向・風速北 8m/s 瞬間風速 13m/s
視程10km以上
全天の4割程度の雲 雲底高度 1220m
18日19時 ADT ~ 18日21時 ADT に徐々に
風向・風速北北東 4m/s
19日5時 ADT から
風向・風速不定 2m/s
視程10km以上
少しの雲 雲底高度 300m
19日5時 ADT から 確率 30% で
視程1610m
天気現象もや
全天の8割程度の雲 雲底高度 90m
TAF CYHZ 181438Z 1815/1912 02015G25KT P6SM BKN030
FM182000 36015G25KT P6SM SCT040
BECMG 1822/1824 02008KT
FM190800 VRB03KT P6SM FEW010
PROB30 1908/1912 1SM BR BKN003 RMK NXT FCST BY 181800Z